sensor_id;sensor_type;location;lat;lon;timestamp;P1;durP1;ratioP1;P2;durP2;ratioP2
13457;SDS011;6801;53.018;11.560;2024-03-23T00:52:21;16.85;;;3.15;;
13457;SDS011;6801;53.018;11.560;2024-03-23T00:54:48;16.38;;;2.75;;
13457;SDS011;6801;53.018;11.560;2024-03-23T00:57:14;18.00;;;3.55;;
13457;SDS011;6801;53.018;11.560;2024-03-23T00:59:40;13.43;;;3.33;;
13457;SDS011;6801;53.018;11.560;2024-03-23T01:02:06;17.70;;;3.65;;
13457;SDS011;6801;53.018;11.560;2024-03-23T01:04:32;13.77;;;2.85;;
13457;SDS011;6801;53.018;11.560;2024-03-23T01:06:59;10.32;;;2.75;;
13457;SDS011;6801;53.018;11.560;2024-03-23T01:09:27;13.48;;;3.10;;
13457;SDS011;6801;53.018;11.560;2024-03-23T01:11:54;12.70;;;3.13;;
13457;SDS011;6801;53.018;11.560;2024-03-23T01:14:20;13.98;;;2.70;;
13457;SDS011;6801;53.018;11.560;2024-03-23T01:16:46;14.43;;;2.97;;
13457;SDS011;6801;53.018;11.560;2024-03-23T01:19:12;14.57;;;2.90;;
13457;SDS011;6801;53.018;11.560;2024-03-23T01:21:38;14.10;;;2.80;;
13457;SDS011;6801;53.018;11.560;2024-03-23T01:24:04;14.25;;;2.80;;
13457;SDS011;6801;53.018;11.560;2024-03-23T01:26:33;13.15;;;2.95;;
13457;SDS011;6801;53.018;11.560;2024-03-23T01:29:00;11.32;;;3.40;;
13457;SDS011;6801;53.018;11.560;2024-03-23T01:31:26;15.43;;;2.85;;
13457;SDS011;6801;53.018;11.560;2024-03-23T01:33:52;12.73;;;3.10;;
13457;SDS011;6801;53.018;11.560;2024-03-23T01:36:18;15.73;;;3.53;;
13457;SDS011;6801;53.018;11.560;2024-03-23T01:38:44;9.70;;;2.95;;
13457;SDS011;6801;53.018;11.560;2024-03-23T01:41:11;18.63;;;3.88;;
13457;SDS011;6801;53.018;11.560;2024-03-23T01:43:39;14.52;;;2.83;;
13457;SDS011;6801;53.018;11.560;2024-03-23T01:46:06;16.70;;;2.70;;
13457;SDS011;6801;53.018;11.560;2024-03-23T01:48:32;14.13;;;3.05;;
13457;SDS011;6801;53.018;11.560;2024-03-23T01:50:58;10.88;;;2.78;;
13457;SDS011;6801;53.018;11.560;2024-03-23T01:53:25;13.88;;;2.85;;
13457;SDS011;6801;53.018;11.560;2024-03-23T01:55:51;14.25;;;2.88;;
13457;SDS011;6801;53.018;11.560;2024-03-23T01:58:17;13.45;;;2.65;;
13457;SDS011;6801;53.018;11.560;2024-03-23T02:00:46;13.07;;;3.45;;
13457;SDS011;6801;53.018;11.560;2024-03-23T02:03:22;18.20;;;2.83;;
13457;SDS011;6801;53.018;11.560;2024-03-23T02:05:49;13.65;;;3.40;;
13457;SDS011;6801;53.018;11.560;2024-03-23T02:08:15;14.63;;;3.00;;
13457;SDS011;6801;53.018;11.560;2024-03-23T02:10:43;13.52;;;3.13;;
13457;SDS011;6801;53.018;11.560;2024-03-23T02:13:09;15.73;;;3.28;;
13457;SDS011;6801;53.018;11.560;2024-03-23T02:15:35;16.85;;;3.50;;
13457;SDS011;6801;53.018;11.560;2024-03-23T02:18:04;12.15;;;3.00;;
13457;SDS011;6801;53.018;11.560;2024-03-23T02:20:30;9.18;;;2.83;;
13457;SDS011;6801;53.018;11.560;2024-03-23T02:22:59;11.60;;;3.65;;
13457;SDS011;6801;53.018;11.560;2024-03-23T02:25:26;10.48;;;2.60;;
13457;SDS011;6801;53.018;11.560;2024-03-23T02:27:52;8.82;;;3.05;;
13457;SDS011;6801;53.018;11.560;2024-03-23T02:30:18;12.55;;;3.63;;
13457;SDS011;6801;53.018;11.560;2024-03-23T02:32:44;13.65;;;3.50;;
13457;SDS011;6801;53.018;11.560;2024-03-23T02:35:10;21.27;;;3.88;;
13457;SDS011;6801;53.018;11.560;2024-03-23T02:37:37;16.80;;;4.40;;
13457;SDS011;6801;53.018;11.560;2024-03-23T02:40:06;8.82;;;3.70;;
13457;SDS011;6801;53.018;11.560;2024-03-23T02:42:33;17.67;;;3.85;;
13457;SDS011;6801;53.018;11.560;2024-03-23T02:44:59;15.07;;;4.10;;
13457;SDS011;6801;53.018;11.560;2024-03-23T02:47:25;16.27;;;4.35;;
13457;SDS011;6801;53.018;11.560;2024-03-23T02:49:51;15.23;;;3.47;;
13457;SDS011;6801;53.018;11.560;2024-03-23T02:52:18;11.43;;;2.90;;
13457;SDS011;6801;53.018;11.560;2024-03-23T02:54:44;20.27;;;3.80;;
13457;SDS011;6801;53.018;11.560;2024-03-23T02:57:12;13.65;;;4.35;;
13457;SDS011;6801;53.018;11.560;2024-03-23T02:59:39;11.70;;;3.65;;
13457;SDS011;6801;53.018;11.560;2024-03-23T03:02:05;15.55;;;3.53;;
13457;SDS011;6801;53.018;11.560;2024-03-23T03:04:31;10.75;;;3.47;;
13457;SDS011;6801;53.018;11.560;2024-03-23T03:06:57;12.57;;;3.42;;
13457;SDS011;6801;53.018;11.560;2024-03-23T03:09:23;11.70;;;3.03;;
13457;SDS011;6801;53.018;11.560;2024-03-23T03:11:50;14.32;;;4.00;;
13457;SDS011;6801;53.018;11.560;2024-03-23T03:14:18;19.00;;;3.72;;
13457;SDS011;6801;53.018;11.560;2024-03-23T03:16:44;18.50;;;3.90;;
13457;SDS011;6801;53.018;11.560;2024-03-23T03:19:11;10.75;;;3.33;;
13457;SDS011;6801;53.018;11.560;2024-03-23T03:21:37;14.63;;;3.50;;
13457;SDS011;6801;53.018;11.560;2024-03-23T03:24:05;18.90;;;3.42;;
13457;SDS011;6801;53.018;11.560;2024-03-23T03:26:32;15.75;;;3.58;;
13457;SDS011;6801;53.018;11.560;2024-03-23T03:28:58;13.50;;;3.35;;
13457;SDS011;6801;53.018;11.560;2024-03-23T03:31:27;16.25;;;3.25;;
13457;SDS011;6801;53.018;11.560;2024-03-23T03:33:53;18.95;;;3.72;;
13457;SDS011;6801;53.018;11.560;2024-03-23T03:36:19;13.57;;;3.20;;
13457;SDS011;6801;53.018;11.560;2024-03-23T03:38:45;15.70;;;3.50;;
13457;SDS011;6801;53.018;11.560;2024-03-23T03:41:12;12.50;;;3.33;;
13457;SDS011;6801;53.018;11.560;2024-03-23T03:43:38;13.50;;;3.58;;
13457;SDS011;6801;53.018;11.560;2024-03-23T03:46:04;15.73;;;4.20;;
13457;SDS011;6801;53.018;11.560;2024-03-23T03:48:33;13.98;;;3.60;;
13457;SDS011;6801;53.018;11.560;2024-03-23T03:51:00;18.75;;;4.15;;
13457;SDS011;6801;53.018;11.560;2024-03-23T03:53:26;17.00;;;3.75;;
13457;SDS011;6801;53.018;11.560;2024-03-23T03:55:52;21.55;;;3.83;;
13457;SDS011;6801;53.018;11.560;2024-03-23T03:58:18;18.58;;;4.00;;
13457;SDS011;6801;53.018;11.560;2024-03-23T04:00:44;14.52;;;3.78;;
13457;SDS011;6801;53.018;11.560;2024-03-23T04:03:10;19.70;;;3.45;;
13457;SDS011;6801;53.018;11.560;2024-03-23T04:05:39;16.23;;;3.70;;
13457;SDS011;6801;53.018;11.560;2024-03-23T04:08:07;16.70;;;2.95;;
13457;SDS011;6801;53.018;11.560;2024-03-23T04:10:33;19.20;;;3.63;;
13457;SDS011;6801;53.018;11.560;2024-03-23T04:13:00;16.08;;;4.05;;
13457;SDS011;6801;53.018;11.560;2024-03-23T04:15:26;22.05;;;3.50;;
13457;SDS011;6801;53.018;11.560;2024-03-23T04:17:52;16.65;;;3.40;;
13457;SDS011;6801;53.018;11.560;2024-03-23T04:20:18;17.17;;;4.10;;
13457;SDS011;6801;53.018;11.560;2024-03-23T04:22:47;15.90;;;3.40;;
13457;SDS011;6801;53.018;11.560;2024-03-23T04:25:13;15.63;;;3.55;;
13457;SDS011;6801;53.018;11.560;2024-03-23T04:27:39;16.20;;;2.92;;
13457;SDS011;6801;53.018;11.560;2024-03-23T04:30:06;20.17;;;3.55;;
13457;SDS011;6801;53.018;11.560;2024-03-23T04:32:35;17.63;;;3.72;;
13457;SDS011;6801;53.018;11.560;2024-03-23T04:35:01;13.38;;;3.00;;
13457;SDS011;6801;53.018;11.560;2024-03-23T04:37:28;19.83;;;3.53;;
13457;SDS011;6801;53.018;11.560;2024-03-23T04:39:57;12.60;;;3.10;;
13457;SDS011;6801;53.018;11.560;2024-03-23T04:42:23;16.10;;;3.75;;
13457;SDS011;6801;53.018;11.560;2024-03-23T04:44:49;19.95;;;6.65;;
13457;SDS011;6801;53.018;11.560;2024-03-23T04:47:15;19.50;;;3.97;;
13457;SDS011;6801;53.018;11.560;2024-03-23T04:49:42;13.02;;;2.83;;
13457;SDS011;6801;53.018;11.560;2024-03-23T04:52:08;17.83;;;4.35;;
13457;SDS011;6801;53.018;11.560;2024-03-23T04:54:34;13.65;;;3.58;;
13457;SDS011;6801;53.018;11.560;2024-03-23T04:57:03;13.77;;;2.20;;
13457;SDS011;6801;53.018;11.560;2024-03-23T04:59:30;16.25;;;3.28;;
13457;SDS011;6801;53.018;11.560;2024-03-23T05:01:56;14.80;;;3.00;;
13457;SDS011;6801;53.018;11.560;2024-03-23T05:04:23;17.88;;;3.03;;
13457;SDS011;6801;53.018;11.560;2024-03-23T05:06:49;16.48;;;3.97;;
13457;SDS011;6801;53.018;11.560;2024-03-23T05:09:15;15.32;;;3.35;;
13457;SDS011;6801;53.018;11.560;2024-03-23T05:11:41;16.08;;;3.03;;
13457;SDS011;6801;53.018;11.560;2024-03-23T05:14:10;16.67;;;3.60;;
13457;SDS011;6801;53.018;11.560;2024-03-23T05:16:39;12.30;;;3.20;;
13457;SDS011;6801;53.018;11.560;2024-03-23T05:19:08;18.30;;;2.85;;
13457;SDS011;6801;53.018;11.560;2024-03-23T05:21:34;17.92;;;3.92;;
13457;SDS011;6801;53.018;11.560;2024-03-23T05:24:00;16.33;;;2.90;;
13457;SDS011;6801;53.018;11.560;2024-03-23T05:26:26;18.83;;;5.35;;
13457;SDS011;6801;53.018;11.560;2024-03-23T05:28:52;23.65;;;10.43;;
13457;SDS011;6801;53.018;11.560;2024-03-23T05:31:31;28.27;;;12.55;;
13457;SDS011;6801;53.018;11.560;2024-03-23T05:33:57;17.80;;;5.13;;
13457;SDS011;6801;53.018;11.560;2024-03-23T05:36:23;18.38;;;4.30;;
13457;SDS011;6801;53.018;11.560;2024-03-23T05:38:49;16.67;;;4.22;;
13457;SDS011;6801;53.018;11.560;2024-03-23T05:41:16;15.43;;;3.95;;
13457;SDS011;6801;53.018;11.560;2024-03-23T05:43:42;17.83;;;4.10;;
13457;SDS011;6801;53.018;11.560;2024-03-23T05:46:08;21.67;;;3.90;;
13457;SDS011;6801;53.018;11.560;2024-03-23T05:48:37;10.93;;;3.42;;
13457;SDS011;6801;53.018;11.560;2024-03-23T05:51:03;12.98;;;3.08;;
13457;SDS011;6801;53.018;11.560;2024-03-23T05:53:29;14.07;;;3.42;;
13457;SDS011;6801;53.018;11.560;2024-03-23T05:56:00;15.35;;;3.08;;
13457;SDS011;6801;53.018;11.560;2024-03-23T05:58:28;14.05;;;2.97;;
13457;SDS011;6801;53.018;11.560;2024-03-23T06:00:56;21.42;;;3.25;;
13457;SDS011;6801;53.018;11.560;2024-03-23T06:03:23;18.70;;;3.88;;
13457;SDS011;6801;53.018;11.560;2024-03-23T06:05:52;15.45;;;3.88;;
13457;SDS011;6801;53.018;11.560;2024-03-23T06:08:18;21.52;;;3.60;;
13457;SDS011;6801;53.018;11.560;2024-03-23T06:10:45;13.02;;;3.40;;
13457;SDS011;6801;53.018;11.560;2024-03-23T06:13:11;11.75;;;2.97;;
13457;SDS011;6801;53.018;11.560;2024-03-23T06:15:37;14.75;;;4.82;;
13457;SDS011;6801;53.018;11.560;2024-03-23T06:18:04;14.07;;;3.90;;
13457;SDS011;6801;53.018;11.560;2024-03-23T06:20:30;15.95;;;3.65;;
13457;SDS011;6801;53.018;11.560;2024-03-23T06:22:59;11.13;;;3.33;;
13457;SDS011;6801;53.018;11.560;2024-03-23T06:25:25;22.83;;;4.63;;
13457;SDS011;6801;53.018;11.560;2024-03-23T06:27:52;15.77;;;3.55;;
13457;SDS011;6801;53.018;11.560;2024-03-23T06:30:18;13.98;;;3.38;;
13457;SDS011;6801;53.018;11.560;2024-03-23T06:32:44;12.10;;;3.13;;
13457;SDS011;6801;53.018;11.560;2024-03-23T06:35:10;18.00;;;3.83;;
13457;SDS011;6801;53.018;11.560;2024-03-23T06:37:36;15.73;;;3.75;;
13457;SDS011;6801;53.018;11.560;2024-03-23T06:40:06;20.75;;;4.00;;
13457;SDS011;6801;53.018;11.560;2024-03-23T06:42:33;20.17;;;3.72;;
13457;SDS011;6801;53.018;11.560;2024-03-23T06:44:59;16.50;;;4.80;;
13457;SDS011;6801;53.018;11.560;2024-03-23T06:47:25;18.45;;;4.43;;
13457;SDS011;6801;53.018;11.560;2024-03-23T06:49:52;20.67;;;3.80;;
13457;SDS011;6801;53.018;11.560;2024-03-23T06:52:18;17.20;;;3.10;;
13457;SDS011;6801;53.018;11.560;2024-03-23T06:54:44;13.20;;;3.30;;
13457;SDS011;6801;53.018;11.560;2024-03-23T06:57:13;22.75;;;3.83;;
13457;SDS011;6801;53.018;11.560;2024-03-23T06:59:39;18.90;;;5.00;;
13457;SDS011;6801;53.018;11.560;2024-03-23T07:02:05;17.77;;;4.03;;
13457;SDS011;6801;53.018;11.560;2024-03-23T07:04:31;16.95;;;3.70;;
13457;SDS011;6801;53.018;11.560;2024-03-23T07:06:57;14.48;;;3.25;;
13457;SDS011;6801;53.018;11.560;2024-03-23T07:09:23;16.73;;;4.43;;
13457;SDS011;6801;53.018;11.560;2024-03-23T07:11:50;17.08;;;3.45;;
13457;SDS011;6801;53.018;11.560;2024-03-23T07:14:19;18.05;;;3.70;;
13457;SDS011;6801;53.018;11.560;2024-03-23T07:16:45;20.17;;;3.72;;
13457;SDS011;6801;53.018;11.560;2024-03-23T07:19:11;22.10;;;4.25;;
13457;SDS011;6801;53.018;11.560;2024-03-23T07:21:37;23.63;;;3.47;;
13457;SDS011;6801;53.018;11.560;2024-03-23T07:24:04;16.30;;;3.10;;
13457;SDS011;6801;53.018;11.560;2024-03-23T07:26:30;17.65;;;3.75;;
13457;SDS011;6801;53.018;11.560;2024-03-23T07:28:56;17.45;;;3.30;;
13457;SDS011;6801;53.018;11.560;2024-03-23T07:31:25;20.88;;;4.90;;
13457;SDS011;6801;53.018;11.560;2024-03-23T07:33:51;24.05;;;8.15;;
13457;SDS011;6801;53.018;11.560;2024-03-23T07:36:18;26.35;;;9.65;;
13457;SDS011;6801;53.018;11.560;2024-03-23T07:38:44;21.83;;;5.57;;
13457;SDS011;6801;53.018;11.560;2024-03-23T07:41:10;15.73;;;4.20;;
13457;SDS011;6801;53.018;11.560;2024-03-23T07:43:37;18.63;;;4.57;;
13457;SDS011;6801;53.018;11.560;2024-03-23T07:46:04;12.85;;;4.50;;
13457;SDS011;6801;53.018;11.560;2024-03-23T07:48:33;21.23;;;4.20;;
13457;SDS011;6801;53.018;11.560;2024-03-23T07:50:59;18.33;;;5.63;;
13457;SDS011;6801;53.018;11.560;2024-03-23T07:53:26;13.52;;;3.83;;
13457;SDS011;6801;53.018;11.560;2024-03-23T07:55:54;18.02;;;5.07;;
13457;SDS011;6801;53.018;11.560;2024-03-23T07:58:21;23.80;;;5.05;;
13457;SDS011;6801;53.018;11.560;2024-03-23T08:00:47;21.40;;;3.95;;
13457;SDS011;6801;53.018;11.560;2024-03-23T08:03:13;25.02;;;4.88;;
13457;SDS011;6801;53.018;11.560;2024-03-23T08:05:42;17.65;;;4.15;;
13457;SDS011;6801;53.018;11.560;2024-03-23T08:08:09;22.83;;;4.07;;
13457;SDS011;6801;53.018;11.560;2024-03-23T08:10:35;22.80;;;4.05;;
13457;SDS011;6801;53.018;11.560;2024-03-23T08:13:01;19.27;;;3.97;;
13457;SDS011;6801;53.018;11.560;2024-03-23T08:15:29;20.48;;;3.72;;
13457;SDS011;6801;53.018;11.560;2024-03-23T08:17:57;19.45;;;3.83;;
13457;SDS011;6801;53.018;11.560;2024-03-23T08:20:23;23.10;;;4.30;;
13457;SDS011;6801;53.018;11.560;2024-03-23T08:22:52;25.50;;;3.58;;
13457;SDS011;6801;53.018;11.560;2024-03-23T08:25:18;17.42;;;3.40;;
13457;SDS011;6801;53.018;11.560;2024-03-23T08:27:44;15.32;;;3.65;;
13457;SDS011;6801;53.018;11.560;2024-03-23T08:30:11;19.17;;;3.38;;
13457;SDS011;6801;53.018;11.560;2024-03-23T08:32:37;19.10;;;3.70;;
13457;SDS011;6801;53.018;11.560;2024-03-23T08:35:04;16.80;;;4.10;;
13457;SDS011;6801;53.018;11.560;2024-03-23T08:37:31;20.83;;;3.88;;
13457;SDS011;6801;53.018;11.560;2024-03-23T08:40:00;23.80;;;4.05;;
13457;SDS011;6801;53.018;11.560;2024-03-23T08:42:26;16.70;;;2.85;;
13457;SDS011;6801;53.018;11.560;2024-03-23T08:44:52;17.25;;;3.53;;
13457;SDS011;6801;53.018;11.560;2024-03-23T08:47:18;15.55;;;3.88;;
13457;SDS011;6801;53.018;11.560;2024-03-23T08:49:44;19.85;;;3.53;;
13457;SDS011;6801;53.018;11.560;2024-03-23T08:52:10;16.08;;;3.83;;
13457;SDS011;6801;53.018;11.560;2024-03-23T08:54:37;18.52;;;4.07;;
13457;SDS011;6801;53.018;11.560;2024-03-23T08:57:05;18.95;;;3.17;;
13457;SDS011;6801;53.018;11.560;2024-03-23T08:59:32;19.77;;;5.05;;
13457;SDS011;6801;53.018;11.560;2024-03-23T09:01:58;20.60;;;3.53;;
13457;SDS011;6801;53.018;11.560;2024-03-23T09:04:24;15.88;;;2.83;;
13457;SDS011;6801;53.018;11.560;2024-03-23T09:06:50;20.23;;;3.80;;
13457;SDS011;6801;53.018;11.560;2024-03-23T09:09:17;17.38;;;3.60;;
13457;SDS011;6801;53.018;11.560;2024-03-23T09:11:43;16.17;;;3.75;;
13457;SDS011;6801;53.018;11.560;2024-03-23T09:14:12;18.23;;;4.38;;
13457;SDS011;6801;53.018;11.560;2024-03-23T09:16:38;16.70;;;3.15;;
13457;SDS011;6801;53.018;11.560;2024-03-23T09:19:05;12.85;;;2.85;;
13457;SDS011;6801;53.018;11.560;2024-03-23T09:21:31;12.07;;;2.45;;
13457;SDS011;6801;53.018;11.560;2024-03-23T09:23:57;12.57;;;3.17;;
13457;SDS011;6801;53.018;11.560;2024-03-23T09:26:23;19.17;;;4.57;;
13457;SDS011;6801;53.018;11.560;2024-03-23T09:28:49;18.00;;;3.90;;
13457;SDS011;6801;53.018;11.560;2024-03-23T09:31:18;18.98;;;4.28;;
13457;SDS011;6801;53.018;11.560;2024-03-23T09:33:44;17.58;;;3.67;;
13457;SDS011;6801;53.018;11.560;2024-03-23T09:36:10;15.90;;;3.05;;
13457;SDS011;6801;53.018;11.560;2024-03-23T09:38:37;10.77;;;2.78;;
13457;SDS011;6801;53.018;11.560;2024-03-23T09:41:06;14.88;;;4.15;;
13457;SDS011;6801;53.018;11.560;2024-03-23T09:46:00;22.15;;;4.45;;
13457;SDS011;6801;53.018;11.560;2024-03-23T09:48:30;11.52;;;3.13;;
13457;SDS011;6801;53.018;11.560;2024-03-23T09:50:57;17.05;;;3.10;;
13457;SDS011;6801;53.018;11.560;2024-03-23T09:53:23;16.13;;;3.47;;
13457;SDS011;6801;53.018;11.560;2024-03-23T09:55:49;19.30;;;3.70;;
13457;SDS011;6801;53.018;11.560;2024-03-23T09:58:16;19.83;;;3.70;;
13457;SDS011;6801;53.018;11.560;2024-03-23T10:00:43;22.63;;;4.45;;
13457;SDS011;6801;53.018;11.560;2024-03-23T10:03:10;15.10;;;3.40;;
13457;SDS011;6801;53.018;11.560;2024-03-23T10:05:39;19.73;;;3.42;;
13457;SDS011;6801;53.018;11.560;2024-03-23T10:08:16;13.57;;;4.07;;
13457;SDS011;6801;53.018;11.560;2024-03-23T10:10:44;17.73;;;3.65;;
13457;SDS011;6801;53.018;11.560;2024-03-23T10:13:11;16.45;;;3.17;;
13457;SDS011;6801;53.018;11.560;2024-03-23T10:15:50;17.75;;;3.30;;
13457;SDS011;6801;53.018;11.560;2024-03-23T10:18:21;12.85;;;3.95;;
13457;SDS011;6801;53.018;11.560;2024-03-23T10:20:50;20.45;;;3.50;;
13457;SDS011;6801;53.018;11.560;2024-03-23T10:23:17;10.05;;;3.58;;
13457;SDS011;6801;53.018;11.560;2024-03-23T10:25:44;15.82;;;3.05;;
13457;SDS011;6801;53.018;11.560;2024-03-23T10:28:11;19.27;;;3.33;;
13457;SDS011;6801;53.018;11.560;2024-03-23T10:30:37;13.25;;;3.47;;
13457;SDS011;6801;53.018;11.560;2024-03-23T10:33:07;12.30;;;2.75;;
13457;SDS011;6801;53.018;11.560;2024-03-23T10:35:33;14.63;;;3.05;;
13457;SDS011;6801;53.018;11.560;2024-03-23T10:38:02;13.90;;;2.95;;
13457;SDS011;6801;53.018;11.560;2024-03-23T10:40:31;13.50;;;2.58;;
13457;SDS011;6801;53.018;11.560;2024-03-23T10:42:59;16.83;;;2.80;;
13457;SDS011;6801;53.018;11.560;2024-03-23T10:45:25;14.85;;;2.10;;
13457;SDS011;6801;53.018;11.560;2024-03-23T10:47:52;17.05;;;2.83;;
13457;SDS011;6801;53.018;11.560;2024-03-23T10:50:18;8.18;;;1.50;;
13457;SDS011;6801;53.018;11.560;2024-03-23T10:52:45;8.90;;;1.73;;
13457;SDS011;6801;53.018;11.560;2024-03-23T10:55:16;7.25;;;1.85;;
13457;SDS011;6801;53.018;11.560;2024-03-23T10:57:44;11.38;;;1.90;;
13457;SDS011;6801;53.018;11.560;2024-03-23T11:00:15;10.55;;;1.95;;
13457;SDS011;6801;53.018;11.560;2024-03-23T11:02:41;13.98;;;2.33;;
13457;SDS011;6801;53.018;11.560;2024-03-23T11:07:55;8.52;;;1.52;;
13457;SDS011;6801;53.018;11.560;2024-03-23T11:10:27;12.77;;;1.95;;
13457;SDS011;6801;53.018;11.560;2024-03-23T11:12:55;8.90;;;1.75;;
13457;SDS011;6801;53.018;11.560;2024-03-23T11:15:21;14.55;;;2.63;;
13457;SDS011;6801;53.018;11.560;2024-03-23T11:20:34;8.40;;;1.60;;
13457;SDS011;6801;53.018;11.560;2024-03-23T11:23:01;5.63;;;1.63;;
13457;SDS011;6801;53.018;11.560;2024-03-23T11:25:30;7.47;;;1.88;;
13457;SDS011;6801;53.018;11.560;2024-03-23T11:27:57;11.35;;;2.55;;
13457;SDS011;6801;53.018;11.560;2024-03-23T11:30:36;12.65;;;2.95;;
13457;SDS011;6801;53.018;11.560;2024-03-23T11:33:02;7.75;;;2.17;;
13457;SDS011;6801;53.018;11.560;2024-03-23T11:35:29;13.80;;;4.53;;
13457;SDS011;6801;53.018;11.560;2024-03-23T11:38:06;12.10;;;4.70;;
13457;SDS011;6801;53.018;11.560;2024-03-23T11:40:35;7.03;;;1.27;;
13457;SDS011;6801;53.018;11.560;2024-03-23T11:43:03;8.13;;;1.45;;
13457;SDS011;6801;53.018;11.560;2024-03-23T11:45:33;4.53;;;1.38;;
13457;SDS011;6801;53.018;11.560;2024-03-23T11:48:07;6.43;;;1.45;;
13457;SDS011;6801;53.018;11.560;2024-03-23T11:50:36;5.20;;;1.30;;
13457;SDS011;6801;53.018;11.560;2024-03-23T11:53:06;9.43;;;1.27;;
13457;SDS011;6801;53.018;11.560;2024-03-23T11:58:10;5.53;;;1.33;;
13457;SDS011;6801;53.018;11.560;2024-03-23T12:00:37;10.85;;;1.70;;
13457;SDS011;6801;53.018;11.560;2024-03-23T12:03:04;5.53;;;1.23;;
13457;SDS011;6801;53.018;11.560;2024-03-23T12:05:31;6.72;;;1.65;;
13457;SDS011;6801;53.018;11.560;2024-03-23T12:10:49;6.57;;;1.30;;
13457;SDS011;6801;53.018;11.560;2024-03-23T12:13:20;4.63;;;1.25;;
13457;SDS011;6801;53.018;11.560;2024-03-23T12:15:47;7.15;;;1.00;;
13457;SDS011;6801;53.018;11.560;2024-03-23T12:18:15;6.78;;;1.00;;
13457;SDS011;6801;53.018;11.560;2024-03-23T12:20:41;9.32;;;1.25;;
13457;SDS011;6801;53.018;11.560;2024-03-23T12:23:09;5.63;;;0.98;;
13457;SDS011;6801;53.018;11.560;2024-03-23T12:25:39;2.92;;;0.60;;
13457;SDS011;6801;53.018;11.560;2024-03-23T12:28:08;3.60;;;0.95;;
13457;SDS011;6801;53.018;11.560;2024-03-23T12:30:35;3.22;;;0.77;;
13457;SDS011;6801;53.018;11.560;2024-03-23T12:33:01;3.72;;;0.90;;
13457;SDS011;6801;53.018;11.560;2024-03-23T12:35:28;5.57;;;0.98;;
13457;SDS011;6801;53.018;11.560;2024-03-23T12:37:54;3.53;;;0.68;;
13457;SDS011;6801;53.018;11.560;2024-03-23T12:40:21;4.13;;;0.95;;
13457;SDS011;6801;53.018;11.560;2024-03-23T12:42:47;3.13;;;0.47;;
13457;SDS011;6801;53.018;11.560;2024-03-23T12:45:16;4.85;;;0.50;;
13457;SDS011;6801;53.018;11.560;2024-03-23T12:47:42;5.57;;;0.80;;
13457;SDS011;6801;53.018;11.560;2024-03-23T12:50:09;4.38;;;0.75;;
13457;SDS011;6801;53.018;11.560;2024-03-23T12:52:35;6.78;;;1.10;;
13457;SDS011;6801;53.018;11.560;2024-03-23T12:55:01;8.80;;;1.10;;
13457;SDS011;6801;53.018;11.560;2024-03-23T12:57:28;7.55;;;0.95;;
13457;SDS011;6801;53.018;11.560;2024-03-23T12:59:55;7.18;;;1.27;;
13457;SDS011;6801;53.018;11.560;2024-03-23T13:02:23;8.05;;;1.00;;
13457;SDS011;6801;53.018;11.560;2024-03-23T13:04:50;5.10;;;0.82;;
13457;SDS011;6801;53.018;11.560;2024-03-23T13:07:17;3.67;;;1.05;;
13457;SDS011;6801;53.018;11.560;2024-03-23T13:09:44;7.10;;;1.02;;
13457;SDS011;6801;53.018;11.560;2024-03-23T13:12:10;4.82;;;0.80;;
13457;SDS011;6801;53.018;11.560;2024-03-23T13:14:37;5.60;;;1.08;;
13457;SDS011;6801;53.018;11.560;2024-03-23T13:17:04;4.30;;;0.80;;
13457;SDS011;6801;53.018;11.560;2024-03-23T13:19:33;7.00;;;0.98;;
13457;SDS011;6801;53.018;11.560;2024-03-23T13:21:59;3.65;;;0.82;;
13457;SDS011;6801;53.018;11.560;2024-03-23T13:24:26;8.57;;;1.00;;
13457;SDS011;6801;53.018;11.560;2024-03-23T13:26:53;6.97;;;0.95;;
13457;SDS011;6801;53.018;11.560;2024-03-23T13:29:20;5.45;;;0.82;;
13457;SDS011;6801;53.018;11.560;2024-03-23T13:31:47;4.90;;;0.60;;
13457;SDS011;6801;53.018;11.560;2024-03-23T13:34:14;1.88;;;0.40;;
13457;SDS011;6801;53.018;11.560;2024-03-23T13:36:43;2.05;;;0.52;;
13457;SDS011;6801;53.018;11.560;2024-03-23T13:39:10;2.15;;;0.40;;
13457;SDS011;6801;53.018;11.560;2024-03-23T13:41:40;2.97;;;0.40;;
13457;SDS011;6801;53.018;11.560;2024-03-23T13:44:07;2.80;;;0.70;;
13457;SDS011;6801;53.018;11.560;2024-03-23T13:46:34;3.03;;;0.90;;
13457;SDS011;6801;53.018;11.560;2024-03-23T13:49:00;3.65;;;0.40;;
13457;SDS011;6801;53.018;11.560;2024-03-23T13:51:26;4.35;;;0.85;;
13457;SDS011;6801;53.018;11.560;2024-03-23T13:53:56;3.53;;;1.25;;
13457;SDS011;6801;53.018;11.560;2024-03-23T13:56:22;4.25;;;0.50;;
13457;SDS011;6801;53.018;11.560;2024-03-23T13:58:49;2.97;;;0.75;;
13457;SDS011;6801;53.018;11.560;2024-03-23T14:01:16;1.65;;;0.40;;
13457;SDS011;6801;53.018;11.560;2024-03-23T14:03:42;1.95;;;0.50;;
13457;SDS011;6801;53.018;11.560;2024-03-23T14:06:09;5.07;;;0.70;;
13457;SDS011;6801;53.018;11.560;2024-03-23T14:08:36;3.83;;;0.80;;
13457;SDS011;6801;53.018;11.560;2024-03-23T14:11:05;2.20;;;0.57;;
13457;SDS011;6801;53.018;11.560;2024-03-23T14:13:32;3.85;;;0.65;;
13457;SDS011;6801;53.018;11.560;2024-03-23T14:15:58;4.35;;;0.70;;
13457;SDS011;6801;53.018;11.560;2024-03-23T14:18:24;2.63;;;0.88;;
13457;SDS011;6801;53.018;11.560;2024-03-23T14:20:51;3.20;;;0.73;;
13457;SDS011;6801;53.018;11.560;2024-03-23T14:25:47;3.33;;;0.93;;
13457;SDS011;6801;53.018;11.560;2024-03-23T14:28:16;3.30;;;0.50;;
13457;SDS011;6801;53.018;11.560;2024-03-23T14:30:42;1.80;;;0.60;;
13457;SDS011;6801;53.018;11.560;2024-03-23T14:33:09;2.70;;;0.90;;
13457;SDS011;6801;53.018;11.560;2024-03-23T14:35:35;3.10;;;0.73;;
13457;SDS011;6801;53.018;11.560;2024-03-23T14:38:01;1.70;;;0.40;;
13457;SDS011;6801;53.018;11.560;2024-03-23T14:40:28;1.00;;;0.50;;
13457;SDS011;6801;53.018;11.560;2024-03-23T14:42:54;2.25;;;0.30;;
13457;SDS011;6801;53.018;11.560;2024-03-23T14:45:23;2.65;;;0.80;;
13457;SDS011;6801;53.018;11.560;2024-03-23T14:47:49;2.05;;;0.50;;
13457;SDS011;6801;53.018;11.560;2024-03-23T14:50:16;3.03;;;0.35;;
13457;SDS011;6801;53.018;11.560;2024-03-23T14:52:42;1.92;;;0.45;;
13457;SDS011;6801;53.018;11.560;2024-03-23T14:55:09;2.35;;;0.55;;
13457;SDS011;6801;53.018;11.560;2024-03-23T14:57:35;4.93;;;0.70;;
13457;SDS011;6801;53.018;11.560;2024-03-23T15:00:02;5.53;;;0.60;;
13457;SDS011;6801;53.018;11.560;2024-03-23T15:02:32;2.30;;;0.75;;
13457;SDS011;6801;53.018;11.560;2024-03-23T15:04:58;2.65;;;0.38;;
13457;SDS011;6801;53.018;11.560;2024-03-23T15:07:24;2.85;;;0.10;;
13457;SDS011;6801;53.018;11.560;2024-03-23T15:09:51;1.15;;;0.30;;
13457;SDS011;6801;53.018;11.560;2024-03-23T15:12:17;2.92;;;0.47;;
13457;SDS011;6801;53.018;11.560;2024-03-23T15:14:44;0.75;;;0.30;;
13457;SDS011;6801;53.018;11.560;2024-03-23T15:17:10;1.23;;;0.50;;
13457;SDS011;6801;53.018;11.560;2024-03-23T15:19:38;3.80;;;0.57;;
13457;SDS011;6801;53.018;11.560;2024-03-23T15:22:05;1.65;;;0.60;;
13457;SDS011;6801;53.018;11.560;2024-03-23T15:24:32;1.80;;;0.40;;
13457;SDS011;6801;53.018;11.560;2024-03-23T15:26:58;3.40;;;0.32;;
13457;SDS011;6801;53.018;11.560;2024-03-23T15:29:25;2.20;;;0.45;;
13457;SDS011;6801;53.018;11.560;2024-03-23T15:31:51;2.15;;;0.65;;
13457;SDS011;6801;53.018;11.560;2024-03-23T15:34:17;0.73;;;0.30;;
13457;SDS011;6801;53.018;11.560;2024-03-23T15:36:46;2.63;;;0.43;;
13457;SDS011;6801;53.018;11.560;2024-03-23T15:39:12;2.00;;;0.40;;
13457;SDS011;6801;53.018;11.560;2024-03-23T15:41:38;0.70;;;0.30;;
13457;SDS011;6801;53.018;11.560;2024-03-23T15:44:05;1.40;;;0.30;;